sensor_id;sensor_type;location;lat;lon;timestamp;pressure;altitude;pressure_sealevel;temperature;humidity
74181;BME280;62544;50.826;14.354;2023-02-01T00:04:07;98957.28;;;4.36;76.85
74181;BME280;62544;50.826;14.354;2023-02-01T00:08:31;98955.29;;;4.45;76.40
74181;BME280;62544;50.826;14.354;2023-02-01T00:12:55;98954.00;;;4.52;75.47
74181;BME280;62544;50.826;14.354;2023-02-01T00:17:19;98951.78;;;4.56;75.50
74181;BME280;62544;50.826;14.354;2023-02-01T00:21:43;98951.84;;;4.57;75.86
74181;BME280;62544;50.826;14.354;2023-02-01T00:26:09;98952.68;;;4.58;76.33
74181;BME280;62544;50.826;14.354;2023-02-01T00:30:31;98957.84;;;4.59;75.49
74181;BME280;62544;50.826;14.354;2023-02-01T00:34:55;98959.42;;;4.58;76.64
74181;BME280;62544;50.826;14.354;2023-02-01T00:39:19;98965.34;;;4.59;74.32
74181;BME280;62544;50.826;14.354;2023-02-01T00:43:43;98966.56;;;4.59;74.25
74181;BME280;62544;50.826;14.354;2023-02-01T00:48:07;98966.39;;;4.61;75.09
74181;BME280;62544;50.826;14.354;2023-02-01T00:52:31;98965.58;;;4.61;74.44
74181;BME280;62544;50.826;14.354;2023-02-01T00:56:55;98966.58;;;4.60;74.66
74181;BME280;62544;50.826;14.354;2023-02-01T01:01:23;98965.49;;;4.61;74.08
74181;BME280;62544;50.826;14.354;2023-02-01T01:05:46;98964.81;;;4.62;74.85
74181;BME280;62544;50.826;14.354;2023-02-01T01:10:07;98964.65;;;4.62;75.26
74181;BME280;62544;50.826;14.354;2023-02-01T01:14:31;98967.70;;;4.63;74.14
74181;BME280;62544;50.826;14.354;2023-02-01T01:18:55;98968.59;;;4.67;73.66
74181;BME280;62544;50.826;14.354;2023-02-01T01:23:19;98969.98;;;4.67;74.15
74181;BME280;62544;50.826;14.354;2023-02-01T01:27:43;98971.47;;;4.67;73.26
74181;BME280;62544;50.826;14.354;2023-02-01T01:32:07;98972.56;;;4.67;72.20
74181;BME280;62544;50.826;14.354;2023-02-01T01:36:31;98972.23;;;4.67;71.54
74181;BME280;62544;50.826;14.354;2023-02-01T01:40:55;98972.38;;;4.70;71.04
74181;BME280;62544;50.826;14.354;2023-02-01T01:49:43;98967.60;;;4.68;70.25
74181;BME280;62544;50.826;14.354;2023-02-01T01:54:09;98965.65;;;4.65;69.95
74181;BME280;62544;50.826;14.354;2023-02-01T01:58:31;98963.76;;;4.63;70.33
74181;BME280;62544;50.826;14.354;2023-02-01T02:02:57;98964.18;;;4.61;69.09
74181;BME280;62544;50.826;14.354;2023-02-01T02:07:21;98964.67;;;4.59;69.38
74181;BME280;62544;50.826;14.354;2023-02-01T02:11:43;98964.94;;;4.56;70.10
74181;BME280;62544;50.826;14.354;2023-02-01T02:16:19;98964.28;;;4.54;71.04
74181;BME280;62544;50.826;14.354;2023-02-01T02:29:24;98956.70;;;4.57;69.01
74181;BME280;62544;50.826;14.354;2023-02-01T02:38:16;98950.71;;;4.54;70.62
74181;BME280;62544;50.826;14.354;2023-02-01T02:46:55;98944.80;;;4.52;68.71
74181;BME280;62544;50.826;14.354;2023-02-01T02:55:43;98936.89;;;4.54;67.84
74181;BME280;62544;50.826;14.354;2023-02-01T03:00:11;98934.43;;;4.53;67.87
74181;BME280;62544;50.826;14.354;2023-02-01T03:04:31;98930.25;;;4.53;67.53
74181;BME280;62544;50.826;14.354;2023-02-01T03:08:56;98928.42;;;4.52;66.81
74181;BME280;62544;50.826;14.354;2023-02-01T03:13:27;98925.72;;;4.51;66.70
74181;BME280;62544;50.826;14.354;2023-02-01T03:17:43;98922.10;;;4.53;67.18
74181;BME280;62544;50.826;14.354;2023-02-01T03:22:08;98922.34;;;4.54;66.70
74181;BME280;62544;50.826;14.354;2023-02-01T03:26:31;98921.75;;;4.56;66.24
74181;BME280;62544;50.826;14.354;2023-02-01T03:30:55;98919.37;;;4.56;68.20
74181;BME280;62544;50.826;14.354;2023-02-01T03:35:19;98916.97;;;4.55;67.81
74181;BME280;62544;50.826;14.354;2023-02-01T03:39:46;98918.47;;;4.52;68.96
74181;BME280;62544;50.826;14.354;2023-02-01T03:44:22;98920.39;;;4.47;68.92
74181;BME280;62544;50.826;14.354;2023-02-01T03:48:31;98921.96;;;4.44;68.43
74181;BME280;62544;50.826;14.354;2023-02-01T03:52:58;98924.92;;;4.42;67.96
74181;BME280;62544;50.826;14.354;2023-02-01T03:57:21;98919.41;;;4.42;68.21
74181;BME280;62544;50.826;14.354;2023-02-01T04:01:43;98915.73;;;4.43;68.25
74181;BME280;62544;50.826;14.354;2023-02-01T04:06:07;98913.16;;;4.47;67.33
74181;BME280;62544;50.826;14.354;2023-02-01T04:10:31;98910.78;;;4.48;68.26
74181;BME280;62544;50.826;14.354;2023-02-01T04:14:55;98910.10;;;4.49;67.50
74181;BME280;62544;50.826;14.354;2023-02-01T04:19:19;98907.28;;;4.53;66.68
74181;BME280;62544;50.826;14.354;2023-02-01T04:23:43;98903.23;;;4.55;67.64
74181;BME280;62544;50.826;14.354;2023-02-01T04:28:07;98904.55;;;4.58;67.20
74181;BME280;62544;50.826;14.354;2023-02-01T04:32:31;98902.62;;;4.64;67.25
74181;BME280;62544;50.826;14.354;2023-02-01T04:36:55;98896.69;;;4.64;67.23
74181;BME280;62544;50.826;14.354;2023-02-01T04:41:19;98892.91;;;4.64;68.22
74181;BME280;62544;50.826;14.354;2023-02-01T04:45:46;98889.28;;;4.64;68.24
74181;BME280;62544;50.826;14.354;2023-02-01T04:50:07;98886.52;;;4.61;68.10
74181;BME280;62544;50.826;14.354;2023-02-01T04:54:31;98882.64;;;4.62;67.33
74181;BME280;62544;50.826;14.354;2023-02-01T04:58:55;98878.68;;;4.64;67.54
74181;BME280;62544;50.826;14.354;2023-02-01T05:03:19;98874.98;;;4.63;67.51
74181;BME280;62544;50.826;14.354;2023-02-01T05:07:43;98871.01;;;4.66;67.19
74181;BME280;62544;50.826;14.354;2023-02-01T05:12:07;98867.21;;;4.69;67.12
74181;BME280;62544;50.826;14.354;2023-02-01T05:16:31;98863.01;;;4.71;66.56
74181;BME280;62544;50.826;14.354;2023-02-01T05:20:55;98857.48;;;4.73;66.65
74181;BME280;62544;50.826;14.354;2023-02-01T05:25:19;98853.57;;;4.70;67.86
74181;BME280;62544;50.826;14.354;2023-02-01T05:29:43;98851.33;;;4.71;67.10
74181;BME280;62544;50.826;14.354;2023-02-01T05:34:07;98849.51;;;4.70;67.51
74181;BME280;62544;50.826;14.354;2023-02-01T05:38:31;98845.33;;;4.70;66.55
74181;BME280;62544;50.826;14.354;2023-02-01T05:42:54;98841.61;;;4.73;66.39
74181;BME280;62544;50.826;14.354;2023-02-01T05:47:18;98836.25;;;4.73;66.49
74181;BME280;62544;50.826;14.354;2023-02-01T05:51:43;98830.08;;;4.72;65.05
74181;BME280;62544;50.826;14.354;2023-02-01T05:56:07;98826.47;;;4.71;66.36
74181;BME280;62544;50.826;14.354;2023-02-01T06:00:31;98822.00;;;4.77;64.91
74181;BME280;62544;50.826;14.354;2023-02-01T06:04:55;98815.36;;;4.82;63.84
74181;BME280;62544;50.826;14.354;2023-02-01T06:09:19;98806.57;;;4.80;64.67
74181;BME280;62544;50.826;14.354;2023-02-01T06:13:43;98804.30;;;4.78;64.27
74181;BME280;62544;50.826;14.354;2023-02-01T06:18:07;98805.60;;;4.79;64.43
74181;BME280;62544;50.826;14.354;2023-02-01T06:22:31;98808.08;;;4.77;65.63
74181;BME280;62544;50.826;14.354;2023-02-01T06:26:55;98809.09;;;4.72;67.46
74181;BME280;62544;50.826;14.354;2023-02-01T06:31:19;98812.44;;;4.68;68.84
74181;BME280;62544;50.826;14.354;2023-02-01T06:35:42;98815.23;;;4.65;68.74
74181;BME280;62544;50.826;14.354;2023-02-01T06:40:07;98815.09;;;4.64;70.48
74181;BME280;62544;50.826;14.354;2023-02-01T06:44:30;98816.61;;;4.60;69.94
74181;BME280;62544;50.826;14.354;2023-02-01T06:48:54;98817.61;;;4.56;69.96
74181;BME280;62544;50.826;14.354;2023-02-01T06:53:18;98815.20;;;4.57;69.34
74181;BME280;62544;50.826;14.354;2023-02-01T06:57:43;98814.28;;;4.62;67.71
74181;BME280;62544;50.826;14.354;2023-02-01T07:02:09;98812.60;;;4.65;68.31
74181;BME280;62544;50.826;14.354;2023-02-01T07:06:30;98811.69;;;4.70;68.17
74181;BME280;62544;50.826;14.354;2023-02-01T07:10:54;98811.64;;;4.74;68.29
74181;BME280;62544;50.826;14.354;2023-02-01T07:15:18;98812.22;;;4.74;70.35
74181;BME280;62544;50.826;14.354;2023-02-01T07:19:42;98814.90;;;4.70;72.13
74181;BME280;62544;50.826;14.354;2023-02-01T07:24:06;98815.76;;;4.63;72.87
74181;BME280;62544;50.826;14.354;2023-02-01T07:28:31;98817.60;;;4.59;73.40
74181;BME280;62544;50.826;14.354;2023-02-01T07:32:54;98816.55;;;4.55;73.81
74181;BME280;62544;50.826;14.354;2023-02-01T07:37:18;98815.73;;;4.54;74.45
74181;BME280;62544;50.826;14.354;2023-02-01T07:41:42;98815.41;;;4.55;74.41
74181;BME280;62544;50.826;14.354;2023-02-01T07:46:06;98812.92;;;4.56;75.57
74181;BME280;62544;50.826;14.354;2023-02-01T07:50:30;98810.91;;;4.63;73.65
74181;BME280;62544;50.826;14.354;2023-02-01T07:54:54;98806.80;;;4.61;74.95
74181;BME280;62544;50.826;14.354;2023-02-01T07:59:19;98803.94;;;4.57;76.16
74181;BME280;62544;50.826;14.354;2023-02-01T08:03:42;98803.31;;;4.52;76.69
74181;BME280;62544;50.826;14.354;2023-02-01T08:08:06;98802.06;;;4.42;79.51
74181;BME280;62544;50.826;14.354;2023-02-01T08:12:30;98799.75;;;4.33;80.87
74181;BME280;62544;50.826;14.354;2023-02-01T08:16:54;98798.55;;;4.26;81.52
74181;BME280;62544;50.826;14.354;2023-02-01T08:21:20;98796.17;;;4.24;82.01
74181;BME280;62544;50.826;14.354;2023-02-01T08:25:43;98793.95;;;4.22;82.59
74181;BME280;62544;50.826;14.354;2023-02-01T08:30:07;98790.75;;;4.20;81.85
74181;BME280;62544;50.826;14.354;2023-02-01T08:34:31;98787.73;;;4.17;81.96
74181;BME280;62544;50.826;14.354;2023-02-01T08:38:54;98784.97;;;4.16;82.49
74181;BME280;62544;50.826;14.354;2023-02-01T08:43:18;98781.94;;;4.11;83.05
74181;BME280;62544;50.826;14.354;2023-02-01T08:47:42;98780.76;;;4.13;81.89
74181;BME280;62544;50.826;14.354;2023-02-01T08:52:06;98778.63;;;4.16;81.58
74181;BME280;62544;50.826;14.354;2023-02-01T08:56:30;98776.01;;;4.15;82.67
74181;BME280;62544;50.826;14.354;2023-02-01T09:00:54;98773.67;;;4.17;82.10
74181;BME280;62544;50.826;14.354;2023-02-01T09:05:18;98769.58;;;4.18;83.09
74181;BME280;62544;50.826;14.354;2023-02-01T09:09:42;98765.91;;;4.13;82.99
74181;BME280;62544;50.826;14.354;2023-02-01T09:14:06;98761.05;;;4.10;82.36
74181;BME280;62544;50.826;14.354;2023-02-01T09:18:30;98758.73;;;4.13;83.74
74181;BME280;62544;50.826;14.354;2023-02-01T09:22:55;98755.52;;;4.16;82.50
74181;BME280;62544;50.826;14.354;2023-02-01T09:27:18;98753.19;;;4.20;81.67
74181;BME280;62544;50.826;14.354;2023-02-01T09:31:42;98752.70;;;4.21;81.31
74181;BME280;62544;50.826;14.354;2023-02-01T09:36:07;98750.28;;;4.28;79.19
74181;BME280;62544;50.826;14.354;2023-02-01T09:40:30;98748.13;;;4.40;78.34
74181;BME280;62544;50.826;14.354;2023-02-01T09:45:06;98745.79;;;4.46;77.42
74181;BME280;62544;50.826;14.354;2023-02-01T09:49:20;98745.90;;;4.53;76.97
74181;BME280;62544;50.826;14.354;2023-02-01T09:53:43;98742.17;;;4.56;76.68
74181;BME280;62544;50.826;14.354;2023-02-01T09:58:07;98742.95;;;4.63;77.16
74181;BME280;62544;50.826;14.354;2023-02-01T10:02:30;98741.85;;;4.66;75.51
74181;BME280;62544;50.826;14.354;2023-02-01T10:24:42;98739.04;;;4.96;76.65
74181;BME280;62544;50.826;14.354;2023-02-01T10:29:04;98739.87;;;4.94;77.54
74181;BME280;62544;50.826;14.354;2023-02-01T10:33:22;98742.17;;;4.86;80.83
74181;BME280;62544;50.826;14.354;2023-02-01T10:37:43;98747.75;;;4.80;80.95
74181;BME280;62544;50.826;14.354;2023-02-01T10:42:07;98752.26;;;4.70;83.31
74181;BME280;62544;50.826;14.354;2023-02-01T10:46:30;98754.88;;;4.52;85.03
74181;BME280;62544;50.826;14.354;2023-02-01T10:50:58;98760.05;;;4.41;85.38
74181;BME280;62544;50.826;14.354;2023-02-01T10:55:28;98760.80;;;4.25;86.42
74181;BME280;62544;50.826;14.354;2023-02-01T10:59:42;98766.41;;;4.07;87.55
74181;BME280;62544;50.826;14.354;2023-02-01T11:04:07;98770.26;;;3.94;87.05
74181;BME280;62544;50.826;14.354;2023-02-01T11:08:30;98771.64;;;3.81;89.88
74181;BME280;62544;50.826;14.354;2023-02-01T11:12:54;98773.10;;;3.67;89.94
74181;BME280;62544;50.826;14.354;2023-02-01T11:17:24;98775.31;;;3.63;89.17
74181;BME280;62544;50.826;14.354;2023-02-01T11:21:42;98771.39;;;3.58;89.07
74181;BME280;62544;50.826;14.354;2023-02-01T11:26:13;98772.72;;;3.55;88.61
74181;BME280;62544;50.826;14.354;2023-02-01T11:30:37;98768.91;;;3.60;87.15
74181;BME280;62544;50.826;14.354;2023-02-01T11:34:59;98767.49;;;3.70;84.14
74181;BME280;62544;50.826;14.354;2023-02-01T11:39:20;98764.77;;;3.92;80.61
74181;BME280;62544;50.826;14.354;2023-02-01T11:43:53;98760.82;;;4.26;78.06
74181;BME280;62544;50.826;14.354;2023-02-01T11:48:08;98752.98;;;4.65;77.69
74181;BME280;62544;50.826;14.354;2023-02-01T11:56:57;98744.64;;;5.86;67.38
74181;BME280;62544;50.826;14.354;2023-02-01T12:01:27;98739.36;;;6.21;67.35
74181;BME280;62544;50.826;14.354;2023-02-01T12:05:50;98733.10;;;6.67;66.13
74181;BME280;62544;50.826;14.354;2023-02-01T12:14:40;98726.15;;;7.03;69.58
74181;BME280;62544;50.826;14.354;2023-02-01T12:23:32;98724.19;;;6.68;71.24
74181;BME280;62544;50.826;14.354;2023-02-01T12:36:40;98727.33;;;6.26;77.56
74181;BME280;62544;50.826;14.354;2023-02-01T12:41:01;98727.48;;;5.87;82.42
74181;BME280;62544;50.826;14.354;2023-02-01T12:54:10;98727.97;;;5.34;80.38
74181;BME280;62544;50.826;14.354;2023-02-01T13:02:56;98725.42;;;5.16;77.65
74181;BME280;62544;50.826;14.354;2023-02-01T13:07:20;98726.71;;;5.03;78.37
74181;BME280;62544;50.826;14.354;2023-02-01T13:11:43;98726.98;;;4.99;77.53
74181;BME280;62544;50.826;14.354;2023-02-01T13:16:12;98728.14;;;5.00;75.29
74181;BME280;62544;50.826;14.354;2023-02-01T13:20:38;98729.10;;;4.95;76.89
74181;BME280;62544;50.826;14.354;2023-02-01T13:25:02;98733.03;;;4.90;76.34
74181;BME280;62544;50.826;14.354;2023-02-01T13:29:18;98734.58;;;4.90;75.56
74181;BME280;62544;50.826;14.354;2023-02-01T13:33:54;98735.52;;;4.94;74.51
74181;BME280;62544;50.826;14.354;2023-02-01T13:38:10;98735.32;;;5.00;73.11
74181;BME280;62544;50.826;14.354;2023-02-01T13:42:34;98732.84;;;5.06;73.28
74181;BME280;62544;50.826;14.354;2023-02-01T13:46:56;98730.97;;;5.14;72.90
74181;BME280;62544;50.826;14.354;2023-02-01T13:55:45;98727.97;;;5.27;71.21
74181;BME280;62544;50.826;14.354;2023-02-01T14:00:07;98724.69;;;5.38;70.97
74181;BME280;62544;50.826;14.354;2023-02-01T14:04:49;98720.84;;;5.45;71.24
74181;BME280;62544;50.826;14.354;2023-02-01T14:09:13;98718.98;;;5.55;68.61
74181;BME280;62544;50.826;14.354;2023-02-01T14:13:28;98714.00;;;5.59;69.13
74181;BME280;62544;50.826;14.354;2023-02-01T14:17:42;98712.02;;;5.60;71.03
74181;BME280;62544;50.826;14.354;2023-02-01T14:30:54;98701.90;;;5.82;67.78
74181;BME280;62544;50.826;14.354;2023-02-01T14:35:23;98698.75;;;5.85;67.04
74181;BME280;62544;50.826;14.354;2023-02-01T14:57:18;98682.98;;;5.85;63.42
74181;BME280;62544;50.826;14.354;2023-02-01T15:01:48;98679.92;;;5.81;63.78
74181;BME280;62544;50.826;14.354;2023-02-01T15:10:30;98679.86;;;5.78;64.55
74181;BME280;62544;50.826;14.354;2023-02-01T15:15:10;98679.88;;;5.73;65.40
74181;BME280;62544;50.826;14.354;2023-02-01T15:19:18;98677.44;;;5.68;64.81
74181;BME280;62544;50.826;14.354;2023-02-01T15:23:42;98679.24;;;5.65;65.67
74181;BME280;62544;50.826;14.354;2023-02-01T15:28:11;98683.23;;;5.62;65.31
74181;BME280;62544;50.826;14.354;2023-02-01T15:32:31;98683.93;;;5.58;65.57
74181;BME280;62544;50.826;14.354;2023-02-01T15:36:54;98684.53;;;5.56;66.32
74181;BME280;62544;50.826;14.354;2023-02-01T15:41:21;98681.97;;;5.52;66.64
74181;BME280;62544;50.826;14.354;2023-02-01T15:45:42;98678.16;;;5.46;67.51
74181;BME280;62544;50.826;14.354;2023-02-01T15:50:12;98677.52;;;5.43;68.36
74181;BME280;62544;50.826;14.354;2023-02-01T15:54:31;98677.78;;;5.43;67.11
74181;BME280;62544;50.826;14.354;2023-02-01T15:58:56;98671.76;;;5.43;68.91
74181;BME280;62544;50.826;14.354;2023-02-01T16:07:53;98673.32;;;5.22;74.75
74181;BME280;62544;50.826;14.354;2023-02-01T16:16:30;98665.06;;;5.09;75.31
74181;BME280;62544;50.826;14.354;2023-02-01T16:20:57;98659.27;;;4.98;76.59
74181;BME280;62544;50.826;14.354;2023-02-01T16:25:18;98655.44;;;4.84;77.24
74181;BME280;62544;50.826;14.354;2023-02-01T16:29:42;98651.95;;;4.82;76.54
74181;BME280;62544;50.826;14.354;2023-02-01T16:34:09;98649.05;;;4.85;76.41
74181;BME280;62544;50.826;14.354;2023-02-01T16:38:30;98641.99;;;4.90;76.10
74181;BME280;62544;50.826;14.354;2023-02-01T16:42:54;98631.34;;;4.91;76.51
74181;BME280;62544;50.826;14.354;2023-02-01T16:47:19;98621.59;;;4.90;76.67
74181;BME280;62544;50.826;14.354;2023-02-01T16:51:42;98613.45;;;4.88;76.87
74181;BME280;62544;50.826;14.354;2023-02-01T16:56:19;98603.32;;;4.80;77.39
74181;BME280;62544;50.826;14.354;2023-02-01T17:00:30;98594.37;;;4.71;77.83
74181;BME280;62544;50.826;14.354;2023-02-01T17:04:54;98584.56;;;4.66;78.27
74181;BME280;62544;50.826;14.354;2023-02-01T17:09:21;98578.90;;;4.64;76.59
74181;BME280;62544;50.826;14.354;2023-02-01T17:13:45;98577.43;;;4.62;77.46
74181;BME280;62544;50.826;14.354;2023-02-01T17:18:07;98579.41;;;4.63;77.20
74181;BME280;62544;50.826;14.354;2023-02-01T17:22:30;98580.94;;;4.65;77.88
74181;BME280;62544;50.826;14.354;2023-02-01T17:26:54;98581.67;;;4.67;77.85
74181;BME280;62544;50.826;14.354;2023-02-01T17:31:18;98580.62;;;4.72;78.11
74181;BME280;62544;50.826;14.354;2023-02-01T17:35:42;98578.61;;;4.70;79.88
74181;BME280;62544;50.826;14.354;2023-02-01T17:40:06;98581.31;;;4.69;79.36
74181;BME280;62544;50.826;14.354;2023-02-01T17:44:30;98594.11;;;4.64;80.57
74181;BME280;62544;50.826;14.354;2023-02-01T18:10:39;98660.42;;;2.54;89.95
74181;BME280;62544;50.826;14.354;2023-02-01T18:14:56;98663.30;;;2.58;90.09
74181;BME280;62544;50.826;14.354;2023-02-01T18:19:12;98664.92;;;2.56;87.64
74181;BME280;62544;50.826;14.354;2023-02-01T18:23:28;98661.65;;;2.49;89.37
74181;BME280;62544;50.826;14.354;2023-02-01T18:27:44;98660.19;;;2.42;87.92
74181;BME280;62544;50.826;14.354;2023-02-01T18:32:00;98660.43;;;2.39;88.59
74181;BME280;62544;50.826;14.354;2023-02-01T18:36:15;98662.08;;;2.41;88.02
74181;BME280;62544;50.826;14.354;2023-02-01T18:40:50;98663.21;;;2.44;87.53
74181;BME280;62544;50.826;14.354;2023-02-01T18:44:47;98662.23;;;2.49;86.95
74181;BME280;62544;50.826;14.354;2023-02-01T18:49:03;98660.58;;;2.55;86.27
74181;BME280;62544;50.826;14.354;2023-02-01T18:53:20;98659.86;;;2.53;87.29
74181;BME280;62544;50.826;14.354;2023-02-01T18:57:35;98659.77;;;2.48;85.92
74181;BME280;62544;50.826;14.354;2023-02-01T19:01:51;98660.93;;;2.48;87.59
74181;BME280;62544;50.826;14.354;2023-02-01T19:06:08;98659.20;;;2.53;87.06
74181;BME280;62544;50.826;14.354;2023-02-01T19:10:23;98660.41;;;2.59;86.93
74181;BME280;62544;50.826;14.354;2023-02-01T19:14:39;98660.77;;;2.60;86.76
74181;BME280;62544;50.826;14.354;2023-02-01T19:18:55;98659.69;;;2.63;87.02
74181;BME280;62544;50.826;14.354;2023-02-01T19:23:12;98660.24;;;2.64;86.84
74181;BME280;62544;50.826;14.354;2023-02-01T19:27:28;98659.59;;;2.65;86.25
74181;BME280;62544;50.826;14.354;2023-02-01T19:31:44;98659.91;;;2.66;87.33
74181;BME280;62544;50.826;14.354;2023-02-01T19:36:00;98659.59;;;2.66;86.88
74181;BME280;62544;50.826;14.354;2023-02-01T19:40:18;98655.98;;;2.64;87.48
74181;BME280;62544;50.826;14.354;2023-02-01T19:44:32;98656.32;;;2.65;86.15
74181;BME280;62544;50.826;14.354;2023-02-01T19:48:48;98656.73;;;2.68;86.26
74181;BME280;62544;50.826;14.354;2023-02-01T19:53:04;98657.37;;;2.72;85.44
74181;BME280;62544;50.826;14.354;2023-02-01T19:57:20;98655.96;;;2.78;84.85
74181;BME280;62544;50.826;14.354;2023-02-01T20:01:36;98658.65;;;2.85;84.68
74181;BME280;62544;50.826;14.354;2023-02-01T20:05:52;98662.51;;;2.88;84.61
74181;BME280;62544;50.826;14.354;2023-02-01T20:10:08;98665.03;;;2.89;84.19
74181;BME280;62544;50.826;14.354;2023-02-01T20:14:24;98671.12;;;2.85;83.93
74181;BME280;62544;50.826;14.354;2023-02-01T20:18:40;98677.19;;;2.86;84.79
74181;BME280;62544;50.826;14.354;2023-02-01T20:22:59;98681.78;;;2.90;85.17
74181;BME280;62544;50.826;14.354;2023-02-01T20:27:12;98686.77;;;2.98;85.28
74181;BME280;62544;50.826;14.354;2023-02-01T20:31:28;98689.45;;;3.06;84.93
74181;BME280;62544;50.826;14.354;2023-02-01T20:35:44;98691.18;;;3.05;85.98
74181;BME280;62544;50.826;14.354;2023-02-01T20:40:00;98692.49;;;3.06;86.56
74181;BME280;62544;50.826;14.354;2023-02-01T20:44:16;98694.06;;;3.03;87.24
74181;BME280;62544;50.826;14.354;2023-02-01T20:48:32;98694.80;;;3.05;86.67
74181;BME280;62544;50.826;14.354;2023-02-01T20:52:48;98696.27;;;3.03;86.60
74181;BME280;62544;50.826;14.354;2023-02-01T20:57:04;98698.41;;;2.98;86.59
74181;BME280;62544;50.826;14.354;2023-02-01T21:01:20;98697.77;;;2.96;88.10
74181;BME280;62544;50.826;14.354;2023-02-01T21:05:36;98698.00;;;2.96;87.91
74181;BME280;62544;50.826;14.354;2023-02-01T21:09:52;98699.42;;;2.95;87.84
74181;BME280;62544;50.826;14.354;2023-02-01T21:14:09;98706.22;;;2.97;88.02
74181;BME280;62544;50.826;14.354;2023-02-01T21:18:25;98711.31;;;2.97;88.67
74181;BME280;62544;50.826;14.354;2023-02-01T21:22:41;98719.59;;;2.97;88.59
74181;BME280;62544;50.826;14.354;2023-02-01T21:26:57;98726.31;;;2.96;88.87
74181;BME280;62544;50.826;14.354;2023-02-01T21:31:13;98734.87;;;2.87;89.60
74181;BME280;62544;50.826;14.354;2023-02-01T21:35:29;98739.62;;;2.83;89.98
74181;BME280;62544;50.826;14.354;2023-02-01T21:39:45;98742.74;;;2.83;89.93
74181;BME280;62544;50.826;14.354;2023-02-01T21:44:01;98741.50;;;2.78;90.02
74181;BME280;62544;50.826;14.354;2023-02-01T21:48:20;98741.67;;;2.71;89.86
74181;BME280;62544;50.826;14.354;2023-02-01T21:52:33;98742.33;;;2.71;89.12
74181;BME280;62544;50.826;14.354;2023-02-01T21:56:49;98742.91;;;2.74;89.96
74181;BME280;62544;50.826;14.354;2023-02-01T22:01:05;98742.50;;;2.75;88.59
74181;BME280;62544;50.826;14.354;2023-02-01T22:05:21;98742.66;;;2.75;89.63
74181;BME280;62544;50.826;14.354;2023-02-01T22:09:37;98741.27;;;2.75;88.06
74181;BME280;62544;50.826;14.354;2023-02-01T22:13:53;98743.23;;;2.79;88.94
74181;BME280;62544;50.826;14.354;2023-02-01T22:18:09;98742.66;;;2.76;91.34
74181;BME280;62544;50.826;14.354;2023-02-01T22:22:25;98744.80;;;2.75;87.87
74181;BME280;62544;50.826;14.354;2023-02-01T22:26:41;98748.16;;;2.73;88.05
74181;BME280;62544;50.826;14.354;2023-02-01T22:30:59;98751.68;;;2.72;88.18
74181;BME280;62544;50.826;14.354;2023-02-01T22:35:13;98756.11;;;2.75;86.94
74181;BME280;62544;50.826;14.354;2023-02-01T22:39:29;98755.69;;;2.82;86.70
74181;BME280;62544;50.826;14.354;2023-02-01T22:43:45;98756.09;;;2.84;86.87
74181;BME280;62544;50.826;14.354;2023-02-01T22:48:01;98754.63;;;2.86;87.86
74181;BME280;62544;50.826;14.354;2023-02-01T22:52:17;98754.22;;;2.87;87.18
74181;BME280;62544;50.826;14.354;2023-02-01T22:56:33;98753.30;;;2.89;87.52
74181;BME280;62544;50.826;14.354;2023-02-01T23:00:49;98753.23;;;2.93;87.96
74181;BME280;62544;50.826;14.354;2023-02-01T23:05:17;98754.55;;;2.97;86.87
74181;BME280;62544;50.826;14.354;2023-02-01T23:09:27;98756.84;;;3.02;86.87
74181;BME280;62544;50.826;14.354;2023-02-01T23:13:37;98757.58;;;3.07;87.10
74181;BME280;62544;50.826;14.354;2023-02-01T23:17:53;98759.02;;;3.09;85.54
74181;BME280;62544;50.826;14.354;2023-02-01T23:22:08;98761.02;;;3.07;86.16
74181;BME280;62544;50.826;14.354;2023-02-01T23:26:25;98762.07;;;3.08;85.95
74181;BME280;62544;50.826;14.354;2023-02-01T23:30:41;98762.47;;;3.11;87.08
74181;BME280;62544;50.826;14.354;2023-02-01T23:34:56;98761.40;;;3.09;85.82
74181;BME280;62544;50.826;14.354;2023-02-01T23:39:12;98761.41;;;3.08;86.28
74181;BME280;62544;50.826;14.354;2023-02-01T23:43:29;98762.49;;;3.07;84.77
74181;BME280;62544;50.826;14.354;2023-02-01T23:47:45;98762.57;;;3.07;84.75
74181;BME280;62544;50.826;14.354;2023-02-01T23:52:01;98760.19;;;3.10;84.11
74181;BME280;62544;50.826;14.354;2023-02-01T23:56:35;98756.16;;;3.12;83.82
